sensor_id;sensor_type;location;lat;lon;timestamp;P1;durP1;ratioP1;P2;durP2;ratioP2
11677;SDS011;5895;41.950;24.372;2023-09-19T00:02:04;7.45;;;4.55;;
11677;SDS011;5895;41.950;24.372;2023-09-19T00:04:34;4.63;;;4.22;;
11677;SDS011;5895;41.950;24.372;2023-09-19T00:07:04;6.35;;;4.60;;
11677;SDS011;5895;41.950;24.372;2023-09-19T00:09:32;4.50;;;4.07;;
11677;SDS011;5895;41.950;24.372;2023-09-19T00:12:03;5.28;;;4.78;;
11677;SDS011;5895;41.950;24.372;2023-09-19T00:14:31;4.50;;;4.10;;
11677;SDS011;5895;41.950;24.372;2023-09-19T00:16:59;4.85;;;4.35;;
11677;SDS011;5895;41.950;24.372;2023-09-19T00:19:31;5.00;;;4.50;;
11677;SDS011;5895;41.950;24.372;2023-09-19T00:22:00;5.10;;;4.60;;
11677;SDS011;5895;41.950;24.372;2023-09-19T00:24:28;6.05;;;4.55;;
11677;SDS011;5895;41.950;24.372;2023-09-19T00:26:56;5.43;;;4.93;;
11677;SDS011;5895;41.950;24.372;2023-09-19T00:29:24;7.35;;;4.68;;
11677;SDS011;5895;41.950;24.372;2023-09-19T00:31:54;6.38;;;4.70;;
11677;SDS011;5895;41.950;24.372;2023-09-19T00:34:22;4.80;;;4.40;;
11677;SDS011;5895;41.950;24.372;2023-09-19T00:36:50;6.28;;;5.05;;
11677;SDS011;5895;41.950;24.372;2023-09-19T00:39:21;6.00;;;4.70;;
11677;SDS011;5895;41.950;24.372;2023-09-19T00:41:50;6.22;;;4.63;;
11677;SDS011;5895;41.950;24.372;2023-09-19T00:44:18;5.47;;;4.55;;
11677;SDS011;5895;41.950;24.372;2023-09-19T00:46:46;5.30;;;4.80;;
11677;SDS011;5895;41.950;24.372;2023-09-19T00:49:15;5.60;;;5.07;;
11677;SDS011;5895;41.950;24.372;2023-09-19T00:51:45;4.97;;;4.50;;
11677;SDS011;5895;41.950;24.372;2023-09-19T00:54:13;7.93;;;4.82;;
11677;SDS011;5895;41.950;24.372;2023-09-19T00:56:45;5.57;;;4.97;;
11677;SDS011;5895;41.950;24.372;2023-09-19T00:59:14;5.47;;;4.75;;
11677;SDS011;5895;41.950;24.372;2023-09-19T01:01:42;5.60;;;5.10;;
11677;SDS011;5895;41.950;24.372;2023-09-19T01:04:11;5.65;;;5.15;;
11677;SDS011;5895;41.950;24.372;2023-09-19T01:06:38;5.60;;;5.10;;
11677;SDS011;5895;41.950;24.372;2023-09-19T01:09:05;6.15;;;5.32;;
11677;SDS011;5895;41.950;24.372;2023-09-19T01:11:35;5.00;;;4.50;;
11677;SDS011;5895;41.950;24.372;2023-09-19T01:14:12;8.00;;;5.00;;
11677;SDS011;5895;41.950;24.372;2023-09-19T01:16:48;5.75;;;5.15;;
11677;SDS011;5895;41.950;24.372;2023-09-19T01:19:27;6.80;;;5.50;;
11677;SDS011;5895;41.950;24.372;2023-09-19T01:22:11;5.05;;;4.60;;
11677;SDS011;5895;41.950;24.372;2023-09-19T01:24:51;5.20;;;4.80;;
11677;SDS011;5895;41.950;24.372;2023-09-19T01:27:40;6.07;;;5.03;;
11677;SDS011;5895;41.950;24.372;2023-09-19T01:30:28;5.75;;;5.15;;
11677;SDS011;5895;41.950;24.372;2023-09-19T01:32:59;5.32;;;4.85;;
11677;SDS011;5895;41.950;24.372;2023-09-19T01:35:26;5.85;;;4.75;;
11677;SDS011;5895;41.950;24.372;2023-09-19T01:37:54;6.18;;;5.20;;
11677;SDS011;5895;41.950;24.372;2023-09-19T01:40:21;5.20;;;4.70;;
11677;SDS011;5895;41.950;24.372;2023-09-19T01:42:52;6.72;;;4.90;;
11677;SDS011;5895;41.950;24.372;2023-09-19T01:45:26;5.20;;;4.70;;
11677;SDS011;5895;41.950;24.372;2023-09-19T01:48:02;5.43;;;4.93;;
11677;SDS011;5895;41.950;24.372;2023-09-19T01:50:40;6.78;;;5.28;;
11677;SDS011;5895;41.950;24.372;2023-09-19T01:53:13;5.78;;;5.20;;
11677;SDS011;5895;41.950;24.372;2023-09-19T01:55:48;6.57;;;4.90;;
11677;SDS011;5895;41.950;24.372;2023-09-19T01:58:18;5.47;;;4.82;;
11677;SDS011;5895;41.950;24.372;2023-09-19T02:00:49;4.60;;;4.20;;
11677;SDS011;5895;41.950;24.372;2023-09-19T02:03:18;4.90;;;4.50;;
11677;SDS011;5895;41.950;24.372;2023-09-19T02:05:49;5.03;;;4.43;;
11677;SDS011;5895;41.950;24.372;2023-09-19T02:08:17;5.47;;;4.97;;
11677;SDS011;5895;41.950;24.372;2023-09-19T02:10:45;5.20;;;4.70;;
11677;SDS011;5895;41.950;24.372;2023-09-19T02:13:14;6.72;;;5.10;;
11677;SDS011;5895;41.950;24.372;2023-09-19T02:15:44;5.53;;;5.03;;
11677;SDS011;5895;41.950;24.372;2023-09-19T02:18:13;5.80;;;5.30;;
11677;SDS011;5895;41.950;24.372;2023-09-19T02:20:41;5.63;;;4.70;;
11677;SDS011;5895;41.950;24.372;2023-09-19T02:23:08;6.57;;;5.35;;
11677;SDS011;5895;41.950;24.372;2023-09-19T02:25:35;6.78;;;5.28;;
11677;SDS011;5895;41.950;24.372;2023-09-19T02:28:03;6.15;;;5.07;;
11677;SDS011;5895;41.950;24.372;2023-09-19T02:30:31;5.55;;;5.05;;
11677;SDS011;5895;41.950;24.372;2023-09-19T02:32:58;6.90;;;5.50;;
11677;SDS011;5895;41.950;24.372;2023-09-19T02:35:28;5.85;;;5.32;;
11677;SDS011;5895;41.950;24.372;2023-09-19T02:38:00;5.82;;;5.05;;
11677;SDS011;5895;41.950;24.372;2023-09-19T02:40:27;5.82;;;5.22;;
11677;SDS011;5895;41.950;24.372;2023-09-19T02:42:55;5.60;;;5.10;;
11677;SDS011;5895;41.950;24.372;2023-09-19T02:45:24;8.05;;;5.03;;
11677;SDS011;5895;41.950;24.372;2023-09-19T02:47:51;5.50;;;5.00;;
11677;SDS011;5895;41.950;24.372;2023-09-19T02:50:18;5.22;;;4.57;;
11677;SDS011;5895;41.950;24.372;2023-09-19T02:52:47;6.20;;;4.80;;
11677;SDS011;5895;41.950;24.372;2023-09-19T02:55:15;5.57;;;4.85;;
11677;SDS011;5895;41.950;24.372;2023-09-19T02:57:47;6.30;;;5.32;;
11677;SDS011;5895;41.950;24.372;2023-09-19T03:00:15;5.15;;;4.13;;
11677;SDS011;5895;41.950;24.372;2023-09-19T03:02:46;5.82;;;5.32;;
11677;SDS011;5895;41.950;24.372;2023-09-19T03:05:14;4.88;;;4.47;;
11677;SDS011;5895;41.950;24.372;2023-09-19T03:07:41;6.05;;;4.97;;
11677;SDS011;5895;41.950;24.372;2023-09-19T03:10:12;5.30;;;4.80;;
11677;SDS011;5895;41.950;24.372;2023-09-19T03:12:41;7.53;;;4.60;;
11677;SDS011;5895;41.950;24.372;2023-09-19T03:15:08;5.50;;;4.32;;
11677;SDS011;5895;41.950;24.372;2023-09-19T03:17:35;7.45;;;4.47;;
11677;SDS011;5895;41.950;24.372;2023-09-19T03:20:03;4.82;;;4.43;;
11677;SDS011;5895;41.950;24.372;2023-09-19T03:22:33;7.13;;;4.68;;
11677;SDS011;5895;41.950;24.372;2023-09-19T03:25:01;4.57;;;4.18;;
11677;SDS011;5895;41.950;24.372;2023-09-19T03:27:30;5.45;;;4.32;;
11677;SDS011;5895;41.950;24.372;2023-09-19T03:29:58;5.90;;;4.78;;
11677;SDS011;5895;41.950;24.372;2023-09-19T03:32:25;5.32;;;4.45;;
11677;SDS011;5895;41.950;24.372;2023-09-19T03:34:52;5.82;;;5.32;;
11677;SDS011;5895;41.950;24.372;2023-09-19T03:37:19;5.50;;;5.00;;
11677;SDS011;5895;41.950;24.372;2023-09-19T03:39:46;4.97;;;4.50;;
11677;SDS011;5895;41.950;24.372;2023-09-19T03:42:13;4.70;;;4.13;;
11677;SDS011;5895;41.950;24.372;2023-09-19T03:44:42;4.60;;;4.20;;
11677;SDS011;5895;41.950;24.372;2023-09-19T03:47:09;4.97;;;4.57;;
11677;SDS011;5895;41.950;24.372;2023-09-19T03:49:37;7.47;;;4.93;;
11677;SDS011;5895;41.950;24.372;2023-09-19T03:52:04;5.13;;;4.63;;
11677;SDS011;5895;41.950;24.372;2023-09-19T03:54:31;5.40;;;4.80;;
11677;SDS011;5895;41.950;24.372;2023-09-19T03:56:58;4.93;;;4.53;;
11677;SDS011;5895;41.950;24.372;2023-09-19T03:59:25;5.43;;;4.93;;
11677;SDS011;5895;41.950;24.372;2023-09-19T04:01:55;7.15;;;4.50;;
11677;SDS011;5895;41.950;24.372;2023-09-19T04:04:23;4.38;;;3.97;;
11677;SDS011;5895;41.950;24.372;2023-09-19T04:06:50;5.32;;;4.82;;
11677;SDS011;5895;41.950;24.372;2023-09-19T04:09:18;5.57;;;4.85;;
11677;SDS011;5895;41.950;24.372;2023-09-19T04:11:45;5.65;;;4.40;;
11677;SDS011;5895;41.950;24.372;2023-09-19T04:14:12;7.05;;;4.93;;
11677;SDS011;5895;41.950;24.372;2023-09-19T04:16:39;5.93;;;5.13;;
11677;SDS011;5895;41.950;24.372;2023-09-19T04:19:07;5.13;;;4.63;;
11677;SDS011;5895;41.950;24.372;2023-09-19T04:21:34;5.05;;;4.38;;
11677;SDS011;5895;41.950;24.372;2023-09-19T04:24:01;8.20;;;6.93;;
11677;SDS011;5895;41.950;24.372;2023-09-19T04:26:28;5.03;;;4.63;;
11677;SDS011;5895;41.950;24.372;2023-09-19T04:28:55;4.93;;;4.47;;
11677;SDS011;5895;41.950;24.372;2023-09-19T04:31:22;4.80;;;4.40;;
11677;SDS011;5895;41.950;24.372;2023-09-19T04:33:49;5.00;;;4.60;;
11677;SDS011;5895;41.950;24.372;2023-09-19T04:36:18;5.32;;;4.70;;
11677;SDS011;5895;41.950;24.372;2023-09-19T04:38:46;5.43;;;4.93;;
11677;SDS011;5895;41.950;24.372;2023-09-19T04:41:13;7.22;;;4.38;;
11677;SDS011;5895;41.950;24.372;2023-09-19T04:43:41;5.03;;;4.63;;
11677;SDS011;5895;41.950;24.372;2023-09-19T04:46:07;4.65;;;4.25;;
11677;SDS011;5895;41.950;24.372;2023-09-19T04:48:35;4.78;;;4.40;;
11677;SDS011;5895;41.950;24.372;2023-09-19T04:51:02;5.28;;;4.78;;
11677;SDS011;5895;41.950;24.372;2023-09-19T04:53:30;5.38;;;4.88;;
11677;SDS011;5895;41.950;24.372;2023-09-19T04:55:57;5.70;;;5.30;;
11677;SDS011;5895;41.950;24.372;2023-09-19T04:58:24;4.80;;;4.40;;
11677;SDS011;5895;41.950;24.372;2023-09-19T05:00:51;5.43;;;4.90;;
11677;SDS011;5895;41.950;24.372;2023-09-19T05:03:18;6.05;;;5.55;;
11677;SDS011;5895;41.950;24.372;2023-09-19T05:05:47;5.80;;;5.30;;
11677;SDS011;5895;41.950;24.372;2023-09-19T05:08:14;7.00;;;6.25;;
11677;SDS011;5895;41.950;24.372;2023-09-19T05:10:42;6.78;;;6.07;;
11677;SDS011;5895;41.950;24.372;2023-09-19T05:13:10;7.43;;;5.93;;
11677;SDS011;5895;41.950;24.372;2023-09-19T05:15:37;8.00;;;6.88;;
11677;SDS011;5895;41.950;24.372;2023-09-19T05:18:04;6.30;;;5.50;;
11677;SDS011;5895;41.950;24.372;2023-09-19T05:20:31;17.02;;;15.48;;
11677;SDS011;5895;41.950;24.372;2023-09-19T05:23:01;16.55;;;14.90;;
11677;SDS011;5895;41.950;24.372;2023-09-19T05:25:33;7.80;;;7.10;;
11677;SDS011;5895;41.950;24.372;2023-09-19T05:28:04;8.15;;;7.28;;
11677;SDS011;5895;41.950;24.372;2023-09-19T05:30:32;6.93;;;6.15;;
11677;SDS011;5895;41.950;24.372;2023-09-19T05:33:01;9.23;;;8.43;;
11677;SDS011;5895;41.950;24.372;2023-09-19T05:35:29;9.75;;;8.85;;
11677;SDS011;5895;41.950;24.372;2023-09-19T05:37:58;7.50;;;6.90;;
11677;SDS011;5895;41.950;24.372;2023-09-19T05:40:25;7.10;;;6.40;;
11677;SDS011;5895;41.950;24.372;2023-09-19T05:42:52;5.90;;;5.40;;
11677;SDS011;5895;41.950;24.372;2023-09-19T05:45:21;7.13;;;6.10;;
11677;SDS011;5895;41.950;24.372;2023-09-19T05:47:48;5.60;;;5.10;;
11677;SDS011;5895;41.950;24.372;2023-09-19T05:50:16;7.00;;;6.40;;
11677;SDS011;5895;41.950;24.372;2023-09-19T05:52:51;8.38;;;6.53;;
11677;SDS011;5895;41.950;24.372;2023-09-19T05:55:18;5.95;;;5.45;;
11677;SDS011;5895;41.950;24.372;2023-09-19T05:57:49;7.03;;;6.32;;
11677;SDS011;5895;41.950;24.372;2023-09-19T06:00:17;7.65;;;6.95;;
11677;SDS011;5895;41.950;24.372;2023-09-19T06:02:50;7.75;;;6.68;;
11677;SDS011;5895;41.950;24.372;2023-09-19T06:05:18;8.75;;;7.90;;
11677;SDS011;5895;41.950;24.372;2023-09-19T06:07:46;8.20;;;7.50;;
11677;SDS011;5895;41.950;24.372;2023-09-19T06:10:13;8.07;;;7.38;;
11677;SDS011;5895;41.950;24.372;2023-09-19T06:12:40;7.88;;;6.88;;
11677;SDS011;5895;41.950;24.372;2023-09-19T06:15:10;6.68;;;5.90;;
11677;SDS011;5895;41.950;24.372;2023-09-19T06:17:40;7.10;;;6.32;;
11677;SDS011;5895;41.950;24.372;2023-09-19T06:20:10;5.95;;;5.40;;
11677;SDS011;5895;41.950;24.372;2023-09-19T06:22:40;5.72;;;5.22;;
11677;SDS011;5895;41.950;24.372;2023-09-19T06:25:08;6.43;;;5.68;;
11677;SDS011;5895;41.950;24.372;2023-09-19T06:27:37;6.45;;;5.85;;
11677;SDS011;5895;41.950;24.372;2023-09-19T06:30:07;6.97;;;5.78;;
11677;SDS011;5895;41.950;24.372;2023-09-19T06:32:34;7.80;;;5.38;;
11677;SDS011;5895;41.950;24.372;2023-09-19T06:35:01;5.45;;;4.85;;
11677;SDS011;5895;41.950;24.372;2023-09-19T06:37:35;5.47;;;5.00;;
11677;SDS011;5895;41.950;24.372;2023-09-19T06:40:04;5.60;;;5.10;;
11677;SDS011;5895;41.950;24.372;2023-09-19T06:42:34;5.43;;;4.93;;
11677;SDS011;5895;41.950;24.372;2023-09-19T06:45:02;6.13;;;5.43;;
11677;SDS011;5895;41.950;24.372;2023-09-19T06:47:30;6.50;;;5.25;;
11677;SDS011;5895;41.950;24.372;2023-09-19T06:49:57;6.57;;;5.32;;
11677;SDS011;5895;41.950;24.372;2023-09-19T06:52:25;5.63;;;4.88;;
11677;SDS011;5895;41.950;24.372;2023-09-19T06:54:54;5.78;;;5.25;;
11677;SDS011;5895;41.950;24.372;2023-09-19T06:57:22;6.25;;;5.40;;
11677;SDS011;5895;41.950;24.372;2023-09-19T06:59:49;5.80;;;5.15;;
11677;SDS011;5895;41.950;24.372;2023-09-19T07:02:16;5.32;;;4.70;;
11677;SDS011;5895;41.950;24.372;2023-09-19T07:04:43;5.65;;;4.60;;
11677;SDS011;5895;41.950;24.372;2023-09-19T07:07:10;5.72;;;4.85;;
11677;SDS011;5895;41.950;24.372;2023-09-19T07:09:38;5.00;;;4.57;;
11677;SDS011;5895;41.950;24.372;2023-09-19T07:12:06;5.13;;;4.43;;
11677;SDS011;5895;41.950;24.372;2023-09-19T07:14:33;4.30;;;3.95;;
11677;SDS011;5895;41.950;24.372;2023-09-19T07:17:00;5.32;;;4.20;;
11677;SDS011;5895;41.950;24.372;2023-09-19T07:19:29;4.40;;;4.00;;
11677;SDS011;5895;41.950;24.372;2023-09-19T07:21:56;4.00;;;3.70;;
11677;SDS011;5895;41.950;24.372;2023-09-19T07:24:24;4.45;;;3.92;;
11677;SDS011;5895;41.950;24.372;2023-09-19T07:26:53;4.05;;;3.75;;
11677;SDS011;5895;41.950;24.372;2023-09-19T07:29:22;4.80;;;3.65;;
11677;SDS011;5895;41.950;24.372;2023-09-19T07:31:51;4.85;;;3.70;;
11677;SDS011;5895;41.950;24.372;2023-09-19T07:34:18;4.13;;;3.72;;
11677;SDS011;5895;41.950;24.372;2023-09-19T07:36:47;3.53;;;3.22;;
11677;SDS011;5895;41.950;24.372;2023-09-19T07:39:14;3.85;;;3.40;;
11677;SDS011;5895;41.950;24.372;2023-09-19T07:41:41;3.10;;;2.90;;
11677;SDS011;5895;41.950;24.372;2023-09-19T07:44:08;4.68;;;3.20;;
11677;SDS011;5895;41.950;24.372;2023-09-19T07:46:37;3.90;;;3.03;;
11677;SDS011;5895;41.950;24.372;2023-09-19T07:49:04;5.03;;;3.50;;
11677;SDS011;5895;41.950;24.372;2023-09-19T07:51:31;3.08;;;2.88;;
11677;SDS011;5895;41.950;24.372;2023-09-19T07:53:59;2.83;;;2.63;;
11677;SDS011;5895;41.950;24.372;2023-09-19T07:56:26;3.08;;;2.80;;
11677;SDS011;5895;41.950;24.372;2023-09-19T07:58:53;2.90;;;2.63;;
11677;SDS011;5895;41.950;24.372;2023-09-19T08:01:20;2.58;;;2.35;;
11677;SDS011;5895;41.950;24.372;2023-09-19T08:03:50;2.50;;;2.30;;
11677;SDS011;5895;41.950;24.372;2023-09-19T08:06:18;2.53;;;2.33;;
11677;SDS011;5895;41.950;24.372;2023-09-19T08:08:45;3.53;;;2.10;;
11677;SDS011;5895;41.950;24.372;2023-09-19T08:11:14;3.45;;;2.40;;
11677;SDS011;5895;41.950;24.372;2023-09-19T08:13:46;2.15;;;2.00;;
11677;SDS011;5895;41.950;24.372;2023-09-19T08:16:14;2.67;;;2.47;;
11677;SDS011;5895;41.950;24.372;2023-09-19T08:18:46;3.33;;;2.50;;
11677;SDS011;5895;41.950;24.372;2023-09-19T08:21:15;2.30;;;2.00;;
11677;SDS011;5895;41.950;24.372;2023-09-19T08:23:42;2.28;;;1.85;;
11677;SDS011;5895;41.950;24.372;2023-09-19T08:26:09;2.30;;;2.10;;
11677;SDS011;5895;41.950;24.372;2023-09-19T08:28:36;2.22;;;1.95;;
11677;SDS011;5895;41.950;24.372;2023-09-19T08:31:06;2.47;;;2.15;;
11677;SDS011;5895;41.950;24.372;2023-09-19T08:33:34;2.03;;;1.92;;
11677;SDS011;5895;41.950;24.372;2023-09-19T08:36:02;3.45;;;1.85;;
11677;SDS011;5895;41.950;24.372;2023-09-19T08:38:33;2.25;;;2.05;;
11677;SDS011;5895;41.950;24.372;2023-09-19T08:41:05;2.50;;;2.00;;
11677;SDS011;5895;41.950;24.372;2023-09-19T08:43:33;2.53;;;2.33;;
11677;SDS011;5895;41.950;24.372;2023-09-19T08:46:03;3.20;;;2.90;;
11677;SDS011;5895;41.950;24.372;2023-09-19T08:48:37;3.13;;;2.50;;
11677;SDS011;5895;41.950;24.372;2023-09-19T08:51:16;1.90;;;1.80;;
11677;SDS011;5895;41.950;24.372;2023-09-19T08:53:50;3.30;;;2.15;;
11677;SDS011;5895;41.950;24.372;2023-09-19T08:56:18;2.10;;;2.00;;
11677;SDS011;5895;41.950;24.372;2023-09-19T08:58:48;2.25;;;2.05;;
11677;SDS011;5895;41.950;24.372;2023-09-19T09:01:18;2.35;;;2.00;;
11677;SDS011;5895;41.950;24.372;2023-09-19T09:03:49;4.13;;;2.30;;
11677;SDS011;5895;41.950;24.372;2023-09-19T09:06:18;2.40;;;2.20;;
11677;SDS011;5895;41.950;24.372;2023-09-19T09:08:46;2.63;;;2.25;;
11677;SDS011;5895;41.950;24.372;2023-09-19T09:11:15;2.42;;;2.22;;
11677;SDS011;5895;41.950;24.372;2023-09-19T09:13:42;2.95;;;2.50;;
11677;SDS011;5895;41.950;24.372;2023-09-19T09:16:10;3.75;;;2.70;;
11677;SDS011;5895;41.950;24.372;2023-09-19T09:18:37;4.18;;;2.60;;
11677;SDS011;5895;41.950;24.372;2023-09-19T09:21:05;2.80;;;2.60;;
11677;SDS011;5895;41.950;24.372;2023-09-19T09:23:32;2.70;;;2.50;;
11677;SDS011;5895;41.950;24.372;2023-09-19T09:25:59;2.88;;;2.50;;
11677;SDS011;5895;41.950;24.372;2023-09-19T09:28:30;3.28;;;2.63;;
11677;SDS011;5895;41.950;24.372;2023-09-19T09:31:00;3.13;;;2.83;;
11677;SDS011;5895;41.950;24.372;2023-09-19T09:33:33;3.22;;;2.92;;
11677;SDS011;5895;41.950;24.372;2023-09-19T09:36:01;3.75;;;3.15;;
11677;SDS011;5895;41.950;24.372;2023-09-19T09:38:42;3.63;;;3.20;;
11677;SDS011;5895;41.950;24.372;2023-09-19T09:41:10;4.13;;;3.08;;
11677;SDS011;5895;41.950;24.372;2023-09-19T09:43:42;3.20;;;2.90;;
11677;SDS011;5895;41.950;24.372;2023-09-19T09:46:12;3.22;;;2.90;;
11677;SDS011;5895;41.950;24.372;2023-09-19T09:49:00;3.45;;;3.25;;
11677;SDS011;5895;41.950;24.372;2023-09-19T09:51:41;3.55;;;3.25;;
11677;SDS011;5895;41.950;24.372;2023-09-19T09:54:12;3.25;;;2.95;;
11677;SDS011;5895;41.950;24.372;2023-09-19T09:56:53;3.60;;;3.30;;
11677;SDS011;5895;41.950;24.372;2023-09-19T10:02:19;4.32;;;3.85;;
11677;SDS011;5895;41.950;24.372;2023-09-19T10:04:51;4.20;;;3.55;;
11677;SDS011;5895;41.950;24.372;2023-09-19T10:07:27;4.72;;;3.30;;
11677;SDS011;5895;41.950;24.372;2023-09-19T10:09:58;3.47;;;3.17;;
11677;SDS011;5895;41.950;24.372;2023-09-19T10:12:38;4.93;;;3.13;;
11677;SDS011;5895;41.950;24.372;2023-09-19T10:15:12;3.40;;;3.10;;
11677;SDS011;5895;41.950;24.372;2023-09-19T10:17:42;3.85;;;3.50;;
11677;SDS011;5895;41.950;24.372;2023-09-19T10:20:14;3.92;;;3.28;;
11677;SDS011;5895;41.950;24.372;2023-09-19T10:23:01;3.58;;;3.33;;
11677;SDS011;5895;41.950;24.372;2023-09-19T10:25:35;3.80;;;3.50;;
11677;SDS011;5895;41.950;24.372;2023-09-19T10:28:05;3.70;;;3.30;;
11677;SDS011;5895;41.950;24.372;2023-09-19T10:30:38;6.18;;;3.88;;
11677;SDS011;5895;41.950;24.372;2023-09-19T10:33:10;4.60;;;3.40;;
11677;SDS011;5895;41.950;24.372;2023-09-19T10:35:39;4.53;;;3.70;;
11677;SDS011;5895;41.950;24.372;2023-09-19T10:38:09;4.15;;;3.72;;
11677;SDS011;5895;41.950;24.372;2023-09-19T10:40:38;6.32;;;3.95;;
11677;SDS011;5895;41.950;24.372;2023-09-19T10:43:11;4.05;;;3.65;;
11677;SDS011;5895;41.950;24.372;2023-09-19T10:45:41;4.07;;;3.72;;
11677;SDS011;5895;41.950;24.372;2023-09-19T10:48:12;6.03;;;3.70;;
11677;SDS011;5895;41.950;24.372;2023-09-19T10:50:42;4.80;;;3.88;;
11677;SDS011;5895;41.950;24.372;2023-09-19T10:53:14;3.72;;;3.40;;
11677;SDS011;5895;41.950;24.372;2023-09-19T10:55:48;4.72;;;3.25;;
11677;SDS011;5895;41.950;24.372;2023-09-19T10:58:28;3.90;;;3.45;;
11677;SDS011;5895;41.950;24.372;2023-09-19T11:01:01;4.18;;;3.42;;
11677;SDS011;5895;41.950;24.372;2023-09-19T11:03:37;4.60;;;3.25;;
11677;SDS011;5895;41.950;24.372;2023-09-19T11:06:09;5.25;;;3.95;;
11677;SDS011;5895;41.950;24.372;2023-09-19T11:09:00;3.78;;;3.47;;
11677;SDS011;5895;41.950;24.372;2023-09-19T11:11:47;4.07;;;3.78;;
11677;SDS011;5895;41.950;24.372;2023-09-19T11:14:29;4.40;;;4.00;;
11677;SDS011;5895;41.950;24.372;2023-09-19T11:20:18;4.03;;;3.63;;
11677;SDS011;5895;41.950;24.372;2023-09-19T11:25:52;4.07;;;3.67;;
11677;SDS011;5895;41.950;24.372;2023-09-19T11:28:35;5.05;;;4.18;;
11677;SDS011;5895;41.950;24.372;2023-09-19T11:40:11;4.57;;;4.18;;
11677;SDS011;5895;41.950;24.372;2023-09-19T11:42:42;4.32;;;4.03;;
11677;SDS011;5895;41.950;24.372;2023-09-19T11:48:32;4.07;;;3.67;;
11677;SDS011;5895;41.950;24.372;2023-09-19T11:51:09;5.28;;;3.60;;
11677;SDS011;5895;41.950;24.372;2023-09-19T11:53:44;3.70;;;3.40;;
11677;SDS011;5895;41.950;24.372;2023-09-19T11:56:14;6.90;;;4.30;;
11677;SDS011;5895;41.950;24.372;2023-09-19T11:58:43;4.55;;;4.10;;
11677;SDS011;5895;41.950;24.372;2023-09-19T12:01:14;3.90;;;3.60;;
11677;SDS011;5895;41.950;24.372;2023-09-19T12:03:47;4.60;;;3.80;;
11677;SDS011;5895;41.950;24.372;2023-09-19T12:06:20;4.88;;;4.03;;
11677;SDS011;5895;41.950;24.372;2023-09-19T12:08:49;3.80;;;3.50;;
11677;SDS011;5895;41.950;24.372;2023-09-19T12:11:21;4.65;;;4.20;;
11677;SDS011;5895;41.950;24.372;2023-09-19T12:13:49;3.72;;;3.42;;
11677;SDS011;5895;41.950;24.372;2023-09-19T12:16:19;4.55;;;3.90;;
11677;SDS011;5895;41.950;24.372;2023-09-19T12:18:48;4.50;;;3.92;;
11677;SDS011;5895;41.950;24.372;2023-09-19T12:21:26;4.07;;;3.70;;
11677;SDS011;5895;41.950;24.372;2023-09-19T12:26:46;4.68;;;4.00;;
11677;SDS011;5895;41.950;24.372;2023-09-19T12:29:18;8.23;;;7.30;;
11677;SDS011;5895;41.950;24.372;2023-09-19T12:31:52;5.20;;;3.97;;
11677;SDS011;5895;41.950;24.372;2023-09-19T12:34:23;4.90;;;3.90;;
11677;SDS011;5895;41.950;24.372;2023-09-19T12:37:09;4.60;;;4.20;;
11677;SDS011;5895;41.950;24.372;2023-09-19T12:39:46;3.90;;;3.60;;
11677;SDS011;5895;41.950;24.372;2023-09-19T12:42:17;4.63;;;4.00;;
11677;SDS011;5895;41.950;24.372;2023-09-19T12:44:46;3.83;;;3.47;;
11677;SDS011;5895;41.950;24.372;2023-09-19T12:47:17;4.25;;;3.50;;
11677;SDS011;5895;41.950;24.372;2023-09-19T12:52:38;4.05;;;3.65;;
11677;SDS011;5895;41.950;24.372;2023-09-19T12:55:07;3.70;;;3.40;;
11677;SDS011;5895;41.950;24.372;2023-09-19T12:57:37;5.05;;;3.38;;
11677;SDS011;5895;41.950;24.372;2023-09-19T13:00:05;5.55;;;3.58;;
11677;SDS011;5895;41.950;24.372;2023-09-19T13:02:36;6.43;;;3.75;;
11677;SDS011;5895;41.950;24.372;2023-09-19T13:05:03;8.05;;;4.25;;
11677;SDS011;5895;41.950;24.372;2023-09-19T13:07:42;4.28;;;3.83;;
11677;SDS011;5895;41.950;24.372;2023-09-19T13:10:14;4.30;;;3.33;;
11677;SDS011;5895;41.950;24.372;2023-09-19T13:12:43;4.40;;;4.00;;
11677;SDS011;5895;41.950;24.372;2023-09-19T13:15:13;4.32;;;3.92;;
11677;SDS011;5895;41.950;24.372;2023-09-19T13:17:45;6.60;;;4.30;;
11677;SDS011;5895;41.950;24.372;2023-09-19T13:20:21;5.55;;;3.97;;
11677;SDS011;5895;41.950;24.372;2023-09-19T13:22:53;4.90;;;4.22;;
11677;SDS011;5895;41.950;24.372;2023-09-19T13:25:23;5.65;;;3.97;;
11677;SDS011;5895;41.950;24.372;2023-09-19T13:27:53;4.50;;;4.10;;
11677;SDS011;5895;41.950;24.372;2023-09-19T13:30:21;4.63;;;4.20;;
11677;SDS011;5895;41.950;24.372;2023-09-19T13:32:50;4.90;;;4.00;;
11677;SDS011;5895;41.950;24.372;2023-09-19T13:35:18;4.95;;;3.92;;
11677;SDS011;5895;41.950;24.372;2023-09-19T13:37:46;4.35;;;3.95;;
11677;SDS011;5895;41.950;24.372;2023-09-19T13:40:16;3.97;;;3.67;;
11677;SDS011;5895;41.950;24.372;2023-09-19T13:42:44;5.22;;;3.85;;
11677;SDS011;5895;41.950;24.372;2023-09-19T13:45:12;4.30;;;3.97;;
11677;SDS011;5895;41.950;24.372;2023-09-19T13:47:42;4.30;;;3.90;;
11677;SDS011;5895;41.950;24.372;2023-09-19T13:50:09;6.75;;;3.90;;
11677;SDS011;5895;41.950;24.372;2023-09-19T13:52:36;4.82;;;3.60;;
11677;SDS011;5895;41.950;24.372;2023-09-19T13:55:04;4.97;;;3.88;;
11677;SDS011;5895;41.950;24.372;2023-09-19T13:57:32;4.35;;;3.65;;
11677;SDS011;5895;41.950;24.372;2023-09-19T13:59:59;4.65;;;3.40;;
11677;SDS011;5895;41.950;24.372;2023-09-19T14:02:27;5.40;;;3.80;;
11677;SDS011;5895;41.950;24.372;2023-09-19T14:04:55;4.78;;;3.20;;
11677;SDS011;5895;41.950;24.372;2023-09-19T14:07:23;3.50;;;3.20;;
11677;SDS011;5895;41.950;24.372;2023-09-19T14:09:50;2.97;;;2.67;;
11677;SDS011;5895;41.950;24.372;2023-09-19T14:12:18;3.17;;;2.88;;
11677;SDS011;5895;41.950;24.372;2023-09-19T14:14:45;3.35;;;3.05;;
11677;SDS011;5895;41.950;24.372;2023-09-19T14:17:12;3.58;;;3.28;;
11677;SDS011;5895;41.950;24.372;2023-09-19T14:19:42;4.10;;;3.35;;
11677;SDS011;5895;41.950;24.372;2023-09-19T14:22:10;3.65;;;3.10;;
11677;SDS011;5895;41.950;24.372;2023-09-19T14:24:37;3.70;;;3.40;;
11677;SDS011;5895;41.950;24.372;2023-09-19T14:27:06;5.97;;;3.58;;
11677;SDS011;5895;41.950;24.372;2023-09-19T14:29:34;3.53;;;3.22;;
11677;SDS011;5895;41.950;24.372;2023-09-19T14:32:01;5.05;;;3.63;;
11677;SDS011;5895;41.950;24.372;2023-09-19T14:34:28;4.60;;;3.58;;
11677;SDS011;5895;41.950;24.372;2023-09-19T14:36:57;3.70;;;3.28;;
11677;SDS011;5895;41.950;24.372;2023-09-19T14:39:24;4.65;;;3.72;;
11677;SDS011;5895;41.950;24.372;2023-09-19T14:41:52;4.45;;;3.67;;
11677;SDS011;5895;41.950;24.372;2023-09-19T14:44:19;4.32;;;3.70;;
11677;SDS011;5895;41.950;24.372;2023-09-19T14:46:46;4.28;;;3.72;;
11677;SDS011;5895;41.950;24.372;2023-09-19T14:49:13;4.70;;;4.00;;
11677;SDS011;5895;41.950;24.372;2023-09-19T14:51:42;4.93;;;3.83;;
11677;SDS011;5895;41.950;24.372;2023-09-19T14:54:10;3.88;;;3.58;;
11677;SDS011;5895;41.950;24.372;2023-09-19T14:56:38;5.97;;;4.82;;
11677;SDS011;5895;41.950;24.372;2023-09-19T14:59:05;4.63;;;4.10;;
11677;SDS011;5895;41.950;24.372;2023-09-19T15:01:32;4.63;;;4.03;;
11677;SDS011;5895;41.950;24.372;2023-09-19T15:04:00;6.95;;;4.40;;
11677;SDS011;5895;41.950;24.372;2023-09-19T15:06:27;4.68;;;4.25;;
11677;SDS011;5895;41.950;24.372;2023-09-19T15:08:54;5.15;;;4.72;;
11677;SDS011;5895;41.950;24.372;2023-09-19T15:11:23;6.90;;;4.80;;
11677;SDS011;5895;41.950;24.372;2023-09-19T15:13:51;7.60;;;4.97;;
11677;SDS011;5895;41.950;24.372;2023-09-19T15:16:18;5.43;;;4.93;;
11677;SDS011;5895;41.950;24.372;2023-09-19T15:18:46;7.60;;;5.60;;
11677;SDS011;5895;41.950;24.372;2023-09-19T15:21:13;14.82;;;9.70;;
11677;SDS011;5895;41.950;24.372;2023-09-19T15:23:41;19.40;;;10.48;;
11677;SDS011;5895;41.950;24.372;2023-09-19T15:26:10;13.05;;;6.90;;
11677;SDS011;5895;41.950;24.372;2023-09-19T15:28:40;9.45;;;5.25;;
11677;SDS011;5895;41.950;24.372;2023-09-19T15:31:08;8.48;;;4.88;;